sensor_id;sensor_type;location;lat;lon;timestamp;P1;durP1;ratioP1;P2;durP2;ratioP2
12469;SDS011;36499;46.484;13.832;2023-04-24T00:01:42;4.20;;;3.80;;
12469;SDS011;36499;46.484;13.832;2023-04-24T00:04:09;4.20;;;3.83;;
12469;SDS011;36499;46.484;13.832;2023-04-24T00:06:39;7.60;;;4.30;;
12469;SDS011;36499;46.484;13.832;2023-04-24T00:09:07;5.97;;;3.23;;
12469;SDS011;36499;46.484;13.832;2023-04-24T00:11:35;5.10;;;3.77;;
12469;SDS011;36499;46.484;13.832;2023-04-24T00:14:03;4.17;;;3.77;;
12469;SDS011;36499;46.484;13.832;2023-04-24T00:16:31;3.90;;;3.17;;
12469;SDS011;36499;46.484;13.832;2023-04-24T00:18:59;5.10;;;3.20;;
12469;SDS011;36499;46.484;13.832;2023-04-24T00:21:26;5.23;;;3.50;;
12469;SDS011;36499;46.484;13.832;2023-04-24T00:23:53;7.93;;;3.80;;
12469;SDS011;36499;46.484;13.832;2023-04-24T00:26:20;5.80;;;3.17;;
12469;SDS011;36499;46.484;13.832;2023-04-24T00:28:48;3.73;;;3.33;;
12469;SDS011;36499;46.484;13.832;2023-04-24T00:31:15;3.97;;;3.30;;
12469;SDS011;36499;46.484;13.832;2023-04-24T00:33:43;3.67;;;3.37;;
12469;SDS011;36499;46.484;13.832;2023-04-24T00:36:10;6.97;;;3.70;;
12469;SDS011;36499;46.484;13.832;2023-04-24T00:38:37;3.87;;;3.37;;
12469;SDS011;36499;46.484;13.832;2023-04-24T00:41:04;4.57;;;3.57;;
12469;SDS011;36499;46.484;13.832;2023-04-24T00:43:32;5.07;;;3.27;;
12469;SDS011;36499;46.484;13.832;2023-04-24T00:45:59;5.40;;;3.50;;
12469;SDS011;36499;46.484;13.832;2023-04-24T00:48:26;5.33;;;3.50;;
12469;SDS011;36499;46.484;13.832;2023-04-24T00:50:55;4.70;;;3.27;;
12469;SDS011;36499;46.484;13.832;2023-04-24T00:53:23;6.17;;;3.87;;
12469;SDS011;36499;46.484;13.832;2023-04-24T00:55:50;10.77;;;6.63;;
12469;SDS011;36499;46.484;13.832;2023-04-24T00:58:18;9.83;;;6.80;;
12469;SDS011;36499;46.484;13.832;2023-04-24T01:00:45;8.13;;;5.70;;
12469;SDS011;36499;46.484;13.832;2023-04-24T01:03:15;8.13;;;4.50;;
12469;SDS011;36499;46.484;13.832;2023-04-24T01:05:43;7.30;;;4.20;;
12469;SDS011;36499;46.484;13.832;2023-04-24T01:08:12;7.63;;;3.40;;
12469;SDS011;36499;46.484;13.832;2023-04-24T01:10:40;4.03;;;3.23;;
12469;SDS011;36499;46.484;13.832;2023-04-24T01:13:09;5.07;;;3.27;;
12469;SDS011;36499;46.484;13.832;2023-04-24T01:15:37;4.30;;;3.17;;
12469;SDS011;36499;46.484;13.832;2023-04-24T01:18:04;4.83;;;3.40;;
12469;SDS011;36499;46.484;13.832;2023-04-24T01:20:31;5.00;;;3.70;;
12469;SDS011;36499;46.484;13.832;2023-04-24T01:23:03;4.33;;;3.60;;
12469;SDS011;36499;46.484;13.832;2023-04-24T01:25:30;4.50;;;3.00;;
12469;SDS011;36499;46.484;13.832;2023-04-24T01:27:58;6.07;;;3.10;;
12469;SDS011;36499;46.484;13.832;2023-04-24T01:30:26;4.83;;;3.50;;
12469;SDS011;36499;46.484;13.832;2023-04-24T01:32:53;6.33;;;3.50;;
12469;SDS011;36499;46.484;13.832;2023-04-24T01:35:21;5.40;;;2.97;;
12469;SDS011;36499;46.484;13.832;2023-04-24T01:37:48;3.63;;;3.33;;
12469;SDS011;36499;46.484;13.832;2023-04-24T01:40:17;3.83;;;3.43;;
12469;SDS011;36499;46.484;13.832;2023-04-24T01:42:44;3.97;;;3.43;;
12469;SDS011;36499;46.484;13.832;2023-04-24T01:45:12;7.80;;;5.10;;
12469;SDS011;36499;46.484;13.832;2023-04-24T01:47:39;5.20;;;4.00;;
12469;SDS011;36499;46.484;13.832;2023-04-24T01:50:07;4.10;;;3.23;;
12469;SDS011;36499;46.484;13.832;2023-04-24T01:52:35;3.77;;;3.33;;
12469;SDS011;36499;46.484;13.832;2023-04-24T01:55:02;5.47;;;3.07;;
12469;SDS011;36499;46.484;13.832;2023-04-24T01:57:33;4.33;;;3.20;;
12469;SDS011;36499;46.484;13.832;2023-04-24T02:00:01;7.37;;;4.00;;
12469;SDS011;36499;46.484;13.832;2023-04-24T02:02:30;5.00;;;3.47;;
12469;SDS011;36499;46.484;13.832;2023-04-24T02:04:58;4.03;;;3.40;;
12469;SDS011;36499;46.484;13.832;2023-04-24T02:07:25;3.53;;;3.23;;
12469;SDS011;36499;46.484;13.832;2023-04-24T02:09:52;6.07;;;4.10;;
12469;SDS011;36499;46.484;13.832;2023-04-24T02:12:20;3.93;;;3.30;;
12469;SDS011;36499;46.484;13.832;2023-04-24T02:14:48;5.43;;;3.47;;
12469;SDS011;36499;46.484;13.832;2023-04-24T02:17:16;4.60;;;3.57;;
12469;SDS011;36499;46.484;13.832;2023-04-24T02:19:44;4.10;;;3.20;;
12469;SDS011;36499;46.484;13.832;2023-04-24T02:22:11;5.17;;;3.30;;
12469;SDS011;36499;46.484;13.832;2023-04-24T02:24:38;5.57;;;3.33;;
12469;SDS011;36499;46.484;13.832;2023-04-24T02:27:06;8.83;;;3.50;;
12469;SDS011;36499;46.484;13.832;2023-04-24T02:29:33;4.63;;;3.80;;
12469;SDS011;36499;46.484;13.832;2023-04-24T02:32:02;5.50;;;3.43;;
12469;SDS011;36499;46.484;13.832;2023-04-24T02:34:29;4.93;;;3.80;;
12469;SDS011;36499;46.484;13.832;2023-04-24T02:36:56;4.67;;;3.87;;
12469;SDS011;36499;46.484;13.832;2023-04-24T02:39:23;4.23;;;3.63;;
12469;SDS011;36499;46.484;13.832;2023-04-24T02:41:50;7.70;;;4.23;;
12469;SDS011;36499;46.484;13.832;2023-04-24T02:44:17;6.00;;;3.87;;
12469;SDS011;36499;46.484;13.832;2023-04-24T02:46:44;4.47;;;3.63;;
12469;SDS011;36499;46.484;13.832;2023-04-24T02:49:12;4.30;;;3.33;;
12469;SDS011;36499;46.484;13.832;2023-04-24T02:51:40;4.10;;;3.17;;
12469;SDS011;36499;46.484;13.832;2023-04-24T02:54:07;3.50;;;3.20;;
12469;SDS011;36499;46.484;13.832;2023-04-24T02:56:35;8.17;;;3.70;;
12469;SDS011;36499;46.484;13.832;2023-04-24T02:59:02;5.43;;;3.50;;
12469;SDS011;36499;46.484;13.832;2023-04-24T03:01:29;4.70;;;3.73;;
12469;SDS011;36499;46.484;13.832;2023-04-24T03:03:56;3.53;;;3.23;;
12469;SDS011;36499;46.484;13.832;2023-04-24T03:06:25;4.33;;;3.33;;
12469;SDS011;36499;46.484;13.832;2023-04-24T03:08:53;7.17;;;3.70;;
12469;SDS011;36499;46.484;13.832;2023-04-24T03:11:20;6.67;;;3.17;;
12469;SDS011;36499;46.484;13.832;2023-04-24T03:13:47;3.83;;;3.43;;
12469;SDS011;36499;46.484;13.832;2023-04-24T03:16:14;5.93;;;3.10;;
12469;SDS011;36499;46.484;13.832;2023-04-24T03:18:41;5.70;;;3.30;;
12469;SDS011;36499;46.484;13.832;2023-04-24T03:21:08;5.10;;;3.90;;
12469;SDS011;36499;46.484;13.832;2023-04-24T03:23:37;4.30;;;3.40;;
12469;SDS011;36499;46.484;13.832;2023-04-24T03:26:04;4.93;;;3.37;;
12469;SDS011;36499;46.484;13.832;2023-04-24T03:28:31;4.27;;;3.77;;
12469;SDS011;36499;46.484;13.832;2023-04-24T03:30:58;6.00;;;3.60;;
12469;SDS011;36499;46.484;13.832;2023-04-24T03:33:25;4.30;;;3.53;;
12469;SDS011;36499;46.484;13.832;2023-04-24T03:35:53;5.47;;;3.67;;
12469;SDS011;36499;46.484;13.832;2023-04-24T03:38:20;4.30;;;3.33;;
12469;SDS011;36499;46.484;13.832;2023-04-24T03:40:48;6.33;;;3.90;;
12469;SDS011;36499;46.484;13.832;2023-04-24T03:43:15;4.67;;;3.90;;
12469;SDS011;36499;46.484;13.832;2023-04-24T03:45:42;4.47;;;3.60;;
12469;SDS011;36499;46.484;13.832;2023-04-24T03:48:09;9.27;;;3.67;;
12469;SDS011;36499;46.484;13.832;2023-04-24T03:50:36;4.77;;;3.77;;
12469;SDS011;36499;46.484;13.832;2023-04-24T03:53:03;4.87;;;4.20;;
12469;SDS011;36499;46.484;13.832;2023-04-24T03:55:30;6.33;;;3.90;;
12469;SDS011;36499;46.484;13.832;2023-04-24T03:57:58;7.33;;;3.90;;
12469;SDS011;36499;46.484;13.832;2023-04-24T04:00:25;7.37;;;4.30;;
12469;SDS011;36499;46.484;13.832;2023-04-24T04:02:53;5.57;;;3.87;;
12469;SDS011;36499;46.484;13.832;2023-04-24T04:05:20;4.63;;;3.80;;
12469;SDS011;36499;46.484;13.832;2023-04-24T04:07:47;6.47;;;3.67;;
12469;SDS011;36499;46.484;13.832;2023-04-24T04:10:14;4.77;;;4.00;;
12469;SDS011;36499;46.484;13.832;2023-04-24T04:12:42;7.47;;;3.93;;
12469;SDS011;36499;46.484;13.832;2023-04-24T04:15:10;4.70;;;4.00;;
12469;SDS011;36499;46.484;13.832;2023-04-24T04:17:37;4.87;;;3.90;;
12469;SDS011;36499;46.484;13.832;2023-04-24T04:20:05;4.47;;;3.70;;
12469;SDS011;36499;46.484;13.832;2023-04-24T04:22:35;4.27;;;3.60;;
12469;SDS011;36499;46.484;13.832;2023-04-24T04:25:02;4.00;;;3.47;;
12469;SDS011;36499;46.484;13.832;2023-04-24T04:27:29;5.47;;;3.47;;
12469;SDS011;36499;46.484;13.832;2023-04-24T04:29:57;4.33;;;3.93;;
12469;SDS011;36499;46.484;13.832;2023-04-24T04:32:27;7.47;;;4.37;;
12469;SDS011;36499;46.484;13.832;2023-04-24T04:34:54;5.33;;;4.23;;
12469;SDS011;36499;46.484;13.832;2023-04-24T04:37:21;4.23;;;3.80;;
12469;SDS011;36499;46.484;13.832;2023-04-24T04:39:48;6.53;;;4.60;;
12469;SDS011;36499;46.484;13.832;2023-04-24T04:42:15;5.83;;;4.53;;
12469;SDS011;36499;46.484;13.832;2023-04-24T04:44:44;5.23;;;4.10;;
12469;SDS011;36499;46.484;13.832;2023-04-24T04:47:11;9.07;;;4.17;;
12469;SDS011;36499;46.484;13.832;2023-04-24T04:49:40;3.70;;;3.40;;
12469;SDS011;36499;46.484;13.832;2023-04-24T04:52:08;6.17;;;3.90;;
12469;SDS011;36499;46.484;13.832;2023-04-24T04:54:35;5.37;;;4.37;;
12469;SDS011;36499;46.484;13.832;2023-04-24T04:57:02;4.40;;;4.00;;
12469;SDS011;36499;46.484;13.832;2023-04-24T04:59:29;7.57;;;4.47;;
12469;SDS011;36499;46.484;13.832;2023-04-24T05:01:56;4.40;;;4.00;;
12469;SDS011;36499;46.484;13.832;2023-04-24T05:04:23;6.50;;;3.83;;
12469;SDS011;36499;46.484;13.832;2023-04-24T05:06:51;4.33;;;3.70;;
12469;SDS011;36499;46.484;13.832;2023-04-24T05:09:19;5.80;;;4.53;;
12469;SDS011;36499;46.484;13.832;2023-04-24T05:11:46;5.93;;;4.40;;
12469;SDS011;36499;46.484;13.832;2023-04-24T05:14:13;15.97;;;10.73;;
12469;SDS011;36499;46.484;13.832;2023-04-24T05:16:40;5.20;;;3.90;;
12469;SDS011;36499;46.484;13.832;2023-04-24T05:19:07;3.83;;;3.53;;
12469;SDS011;36499;46.484;13.832;2023-04-24T05:21:34;4.03;;;3.57;;
12469;SDS011;36499;46.484;13.832;2023-04-24T05:24:02;7.60;;;3.80;;
12469;SDS011;36499;46.484;13.832;2023-04-24T05:26:30;4.77;;;3.77;;
12469;SDS011;36499;46.484;13.832;2023-04-24T05:28:57;4.30;;;3.70;;
12469;SDS011;36499;46.484;13.832;2023-04-24T05:31:24;4.00;;;3.50;;
12469;SDS011;36499;46.484;13.832;2023-04-24T05:33:51;3.90;;;3.50;;
12469;SDS011;36499;46.484;13.832;2023-04-24T05:36:18;3.87;;;3.47;;
12469;SDS011;36499;46.484;13.832;2023-04-24T05:38:45;6.70;;;3.50;;
12469;SDS011;36499;46.484;13.832;2023-04-24T05:41:13;5.13;;;3.40;;
12469;SDS011;36499;46.484;13.832;2023-04-24T05:43:41;4.17;;;3.50;;
12469;SDS011;36499;46.484;13.832;2023-04-24T05:46:08;3.90;;;3.50;;
12469;SDS011;36499;46.484;13.832;2023-04-24T05:48:35;8.70;;;4.10;;
12469;SDS011;36499;46.484;13.832;2023-04-24T05:51:02;6.17;;;3.87;;
12469;SDS011;36499;46.484;13.832;2023-04-24T05:53:29;3.97;;;3.47;;
12469;SDS011;36499;46.484;13.832;2023-04-24T05:55:56;4.23;;;3.50;;
12469;SDS011;36499;46.484;13.832;2023-04-24T05:58:25;4.10;;;3.70;;
12469;SDS011;36499;46.484;13.832;2023-04-24T06:00:52;5.50;;;3.80;;
12469;SDS011;36499;46.484;13.832;2023-04-24T06:03:20;4.50;;;3.80;;
12469;SDS011;36499;46.484;13.832;2023-04-24T06:05:47;6.87;;;4.27;;
12469;SDS011;36499;46.484;13.832;2023-04-24T06:08:16;6.77;;;4.33;;
12469;SDS011;36499;46.484;13.832;2023-04-24T06:10:43;6.93;;;4.20;;
12469;SDS011;36499;46.484;13.832;2023-04-24T06:13:10;8.00;;;4.83;;
12469;SDS011;36499;46.484;13.832;2023-04-24T06:15:38;5.40;;;4.77;;
12469;SDS011;36499;46.484;13.832;2023-04-24T06:18:06;5.77;;;4.37;;
12469;SDS011;36499;46.484;13.832;2023-04-24T06:20:35;5.13;;;4.10;;
12469;SDS011;36499;46.484;13.832;2023-04-24T06:23:02;4.77;;;4.27;;
12469;SDS011;36499;46.484;13.832;2023-04-24T06:25:29;4.53;;;3.83;;
12469;SDS011;36499;46.484;13.832;2023-04-24T06:27:56;6.93;;;4.47;;
12469;SDS011;36499;46.484;13.832;2023-04-24T06:30:23;5.10;;;4.70;;
12469;SDS011;36499;46.484;13.832;2023-04-24T06:32:53;6.80;;;6.03;;
12469;SDS011;36499;46.484;13.832;2023-04-24T06:35:20;8.23;;;5.20;;
12469;SDS011;36499;46.484;13.832;2023-04-24T06:37:47;7.43;;;5.40;;
12469;SDS011;36499;46.484;13.832;2023-04-24T06:40:15;9.50;;;5.73;;
12469;SDS011;36499;46.484;13.832;2023-04-24T06:42:43;6.13;;;5.10;;
12469;SDS011;36499;46.484;13.832;2023-04-24T06:45:10;7.03;;;5.13;;
12469;SDS011;36499;46.484;13.832;2023-04-24T06:47:37;5.63;;;4.97;;
12469;SDS011;36499;46.484;13.832;2023-04-24T06:50:06;5.97;;;5.07;;
12469;SDS011;36499;46.484;13.832;2023-04-24T06:52:34;8.50;;;5.30;;
12469;SDS011;36499;46.484;13.832;2023-04-24T06:55:02;8.37;;;4.83;;
12469;SDS011;36499;46.484;13.832;2023-04-24T06:57:29;6.97;;;5.23;;
12469;SDS011;36499;46.484;13.832;2023-04-24T06:59:57;6.57;;;5.20;;
12469;SDS011;36499;46.484;13.832;2023-04-24T07:02:24;10.43;;;5.33;;
12469;SDS011;36499;46.484;13.832;2023-04-24T07:04:51;5.87;;;4.97;;
12469;SDS011;36499;46.484;13.832;2023-04-24T07:07:20;7.47;;;5.70;;
12469;SDS011;36499;46.484;13.832;2023-04-24T07:09:48;8.27;;;5.50;;
12469;SDS011;36499;46.484;13.832;2023-04-24T07:12:15;8.67;;;5.60;;
12469;SDS011;36499;46.484;13.832;2023-04-24T07:14:45;10.07;;;5.47;;
12469;SDS011;36499;46.484;13.832;2023-04-24T07:17:12;6.50;;;4.90;;
12469;SDS011;36499;46.484;13.832;2023-04-24T07:19:40;9.37;;;5.00;;
12469;SDS011;36499;46.484;13.832;2023-04-24T07:22:07;6.43;;;4.83;;
12469;SDS011;36499;46.484;13.832;2023-04-24T07:24:37;10.23;;;4.57;;
12469;SDS011;36499;46.484;13.832;2023-04-24T07:27:05;10.33;;;4.97;;
12469;SDS011;36499;46.484;13.832;2023-04-24T07:29:32;12.97;;;5.07;;
12469;SDS011;36499;46.484;13.832;2023-04-24T07:31:59;7.63;;;4.17;;
12469;SDS011;36499;46.484;13.832;2023-04-24T07:34:26;7.37;;;4.50;;
12469;SDS011;36499;46.484;13.832;2023-04-24T07:36:53;6.53;;;4.30;;
12469;SDS011;36499;46.484;13.832;2023-04-24T07:39:20;7.43;;;4.53;;
12469;SDS011;36499;46.484;13.832;2023-04-24T07:41:48;10.33;;;4.50;;
12469;SDS011;36499;46.484;13.832;2023-04-24T07:44:15;5.23;;;4.33;;
12469;SDS011;36499;46.484;13.832;2023-04-24T07:46:42;6.43;;;4.57;;
12469;SDS011;36499;46.484;13.832;2023-04-24T07:49:10;7.00;;;4.60;;
12469;SDS011;36499;46.484;13.832;2023-04-24T07:51:37;7.53;;;4.20;;
12469;SDS011;36499;46.484;13.832;2023-04-24T07:54:04;8.13;;;3.93;;
12469;SDS011;36499;46.484;13.832;2023-04-24T07:56:31;7.83;;;4.17;;
12469;SDS011;36499;46.484;13.832;2023-04-24T07:59:00;7.97;;;4.27;;
12469;SDS011;36499;46.484;13.832;2023-04-24T08:01:27;8.87;;;4.10;;
12469;SDS011;36499;46.484;13.832;2023-04-24T08:03:54;6.13;;;4.20;;
12469;SDS011;36499;46.484;13.832;2023-04-24T08:06:22;7.27;;;4.27;;
12469;SDS011;36499;46.484;13.832;2023-04-24T08:08:50;12.17;;;7.50;;
12469;SDS011;36499;46.484;13.832;2023-04-24T08:11:18;9.60;;;5.77;;
12469;SDS011;36499;46.484;13.832;2023-04-24T08:13:45;7.27;;;5.20;;
12469;SDS011;36499;46.484;13.832;2023-04-24T08:16:13;6.97;;;4.60;;
12469;SDS011;36499;46.484;13.832;2023-04-24T08:18:40;10.00;;;4.40;;
12469;SDS011;36499;46.484;13.832;2023-04-24T08:21:07;6.70;;;3.90;;
12469;SDS011;36499;46.484;13.832;2023-04-24T08:23:34;6.67;;;3.90;;
12469;SDS011;36499;46.484;13.832;2023-04-24T08:26:01;7.23;;;5.00;;
12469;SDS011;36499;46.484;13.832;2023-04-24T08:28:28;8.93;;;4.60;;
12469;SDS011;36499;46.484;13.832;2023-04-24T08:30:55;5.47;;;4.27;;
12469;SDS011;36499;46.484;13.832;2023-04-24T08:33:24;7.23;;;4.53;;
12469;SDS011;36499;46.484;13.832;2023-04-24T08:35:51;8.23;;;4.73;;
12469;SDS011;36499;46.484;13.832;2023-04-24T08:38:19;7.87;;;4.90;;
12469;SDS011;36499;46.484;13.832;2023-04-24T08:40:47;8.17;;;4.23;;
12469;SDS011;36499;46.484;13.832;2023-04-24T08:43:14;9.20;;;4.43;;
12469;SDS011;36499;46.484;13.832;2023-04-24T08:45:43;6.47;;;4.50;;
12469;SDS011;36499;46.484;13.832;2023-04-24T08:48:10;11.50;;;4.60;;
12469;SDS011;36499;46.484;13.832;2023-04-24T08:50:40;8.23;;;4.93;;
12469;SDS011;36499;46.484;13.832;2023-04-24T08:53:09;6.97;;;4.70;;
12469;SDS011;36499;46.484;13.832;2023-04-24T08:55:37;8.07;;;3.97;;
12469;SDS011;36499;46.484;13.832;2023-04-24T08:58:06;2.90;;;1.70;;
12469;SDS011;36499;46.484;13.832;2023-04-24T09:00:34;1.73;;;1.20;;
12469;SDS011;36499;46.484;13.832;2023-04-24T09:03:02;0.60;;;0.60;;
12469;SDS011;36499;46.484;13.832;2023-04-24T09:05:31;7.23;;;3.30;;
12469;SDS011;36499;46.484;13.832;2023-04-24T09:08:01;16.27;;;6.40;;
12469;SDS011;36499;46.484;13.832;2023-04-24T09:10:31;15.13;;;6.37;;
12469;SDS011;36499;46.484;13.832;2023-04-24T09:13:01;12.60;;;5.47;;
12469;SDS011;36499;46.484;13.832;2023-04-24T09:15:28;4.07;;;1.77;;
12469;SDS011;36499;46.484;13.832;2023-04-24T09:17:56;4.27;;;1.93;;
12469;SDS011;36499;46.484;13.832;2023-04-24T09:20:23;4.53;;;2.77;;
12469;SDS011;36499;46.484;13.832;2023-04-24T09:22:53;3.17;;;2.00;;
12469;SDS011;36499;46.484;13.832;2023-04-24T09:25:22;9.83;;;4.63;;
12469;SDS011;36499;46.484;13.832;2023-04-24T09:27:57;9.87;;;3.97;;
12469;SDS011;36499;46.484;13.832;2023-04-24T09:30:28;6.90;;;3.80;;
12469;SDS011;36499;46.484;13.832;2023-04-24T09:33:09;1.63;;;1.40;;
12469;SDS011;36499;46.484;13.832;2023-04-24T09:35:39;4.83;;;2.40;;
12469;SDS011;36499;46.484;13.832;2023-04-24T09:38:08;5.67;;;3.13;;
12469;SDS011;36499;46.484;13.832;2023-04-24T09:40:37;5.70;;;2.10;;
12469;SDS011;36499;46.484;13.832;2023-04-24T09:43:09;2.47;;;1.57;;
12469;SDS011;36499;46.484;13.832;2023-04-24T09:45:37;2.13;;;1.37;;
12469;SDS011;36499;46.484;13.832;2023-04-24T09:48:07;6.87;;;3.50;;
12469;SDS011;36499;46.484;13.832;2023-04-24T09:50:36;2.17;;;1.50;;
12469;SDS011;36499;46.484;13.832;2023-04-24T09:53:04;1.40;;;1.20;;
12469;SDS011;36499;46.484;13.832;2023-04-24T09:55:33;2.33;;;1.77;;
12469;SDS011;36499;46.484;13.832;2023-04-24T09:58:13;1.60;;;1.40;;
12469;SDS011;36499;46.484;13.832;2023-04-24T10:00:40;3.40;;;2.90;;
12469;SDS011;36499;46.484;13.832;2023-04-24T10:03:07;1.50;;;1.20;;
12469;SDS011;36499;46.484;13.832;2023-04-24T10:05:35;1.63;;;1.20;;
12469;SDS011;36499;46.484;13.832;2023-04-24T10:08:05;0.70;;;0.70;;
12469;SDS011;36499;46.484;13.832;2023-04-24T10:10:34;1.50;;;1.10;;
12469;SDS011;36499;46.484;13.832;2023-04-24T10:13:06;0.93;;;0.90;;
12469;SDS011;36499;46.484;13.832;2023-04-24T10:15:35;1.30;;;0.90;;
12469;SDS011;36499;46.484;13.832;2023-04-24T10:18:04;1.10;;;1.00;;
12469;SDS011;36499;46.484;13.832;2023-04-24T10:20:32;1.10;;;1.00;;
12469;SDS011;36499;46.484;13.832;2023-04-24T10:23:01;1.23;;;1.13;;
12469;SDS011;36499;46.484;13.832;2023-04-24T10:25:29;2.67;;;1.03;;
12469;SDS011;36499;46.484;13.832;2023-04-24T10:27:59;1.13;;;0.80;;
12469;SDS011;36499;46.484;13.832;2023-04-24T10:30:29;1.43;;;1.07;;
12469;SDS011;36499;46.484;13.832;2023-04-24T10:33:00;0.90;;;0.90;;
12469;SDS011;36499;46.484;13.832;2023-04-24T10:35:29;0.80;;;0.70;;
12469;SDS011;36499;46.484;13.832;2023-04-24T10:37:59;2.17;;;0.77;;
12469;SDS011;36499;46.484;13.832;2023-04-24T10:40:33;0.47;;;0.47;;
12469;SDS011;36499;46.484;13.832;2023-04-24T10:43:02;0.63;;;0.63;;
12469;SDS011;36499;46.484;13.832;2023-04-24T10:45:32;1.30;;;1.20;;
12469;SDS011;36499;46.484;13.832;2023-04-24T10:48:01;1.20;;;1.10;;
12469;SDS011;36499;46.484;13.832;2023-04-24T10:50:42;0.73;;;0.73;;
12469;SDS011;36499;46.484;13.832;2023-04-24T10:53:14;1.03;;;0.70;;
12469;SDS011;36499;46.484;13.832;2023-04-24T10:55:44;0.63;;;0.60;;
12469;SDS011;36499;46.484;13.832;2023-04-24T10:58:14;1.00;;;0.90;;
12469;SDS011;36499;46.484;13.832;2023-04-24T11:00:44;1.23;;;0.90;;
12469;SDS011;36499;46.484;13.832;2023-04-24T11:03:23;2.00;;;1.30;;
12469;SDS011;36499;46.484;13.832;2023-04-24T11:05:55;2.47;;;1.50;;
12469;SDS011;36499;46.484;13.832;2023-04-24T11:08:26;2.30;;;1.00;;
12469;SDS011;36499;46.484;13.832;2023-04-24T11:10:57;1.00;;;0.90;;
12469;SDS011;36499;46.484;13.832;2023-04-24T11:13:28;1.77;;;1.23;;
12469;SDS011;36499;46.484;13.832;2023-04-24T11:16:31;1.90;;;1.30;;
12469;SDS011;36499;46.484;13.832;2023-04-24T11:19:01;1.10;;;1.00;;
12469;SDS011;36499;46.484;13.832;2023-04-24T11:21:31;5.37;;;1.10;;
12469;SDS011;36499;46.484;13.832;2023-04-24T11:26:53;2.13;;;1.20;;
12469;SDS011;36499;46.484;13.832;2023-04-24T11:29:22;9.77;;;4.10;;
12469;SDS011;36499;46.484;13.832;2023-04-24T11:32:15;9.63;;;3.93;;
12469;SDS011;36499;46.484;13.832;2023-04-24T11:34:47;1.57;;;0.90;;
12469;SDS011;36499;46.484;13.832;2023-04-24T11:37:16;0.90;;;0.90;;
12469;SDS011;36499;46.484;13.832;2023-04-24T11:39:43;0.53;;;0.53;;
12469;SDS011;36499;46.484;13.832;2023-04-24T11:42:10;0.60;;;0.60;;
12469;SDS011;36499;46.484;13.832;2023-04-24T11:44:41;0.50;;;0.50;;
12469;SDS011;36499;46.484;13.832;2023-04-24T11:47:09;0.50;;;0.50;;
12469;SDS011;36499;46.484;13.832;2023-04-24T11:49:37;0.50;;;0.50;;
12469;SDS011;36499;46.484;13.832;2023-04-24T11:52:05;0.70;;;0.70;;
12469;SDS011;36499;46.484;13.832;2023-04-24T11:54:32;1.10;;;0.70;;
12469;SDS011;36499;46.484;13.832;2023-04-24T11:56:59;0.73;;;0.70;;
12469;SDS011;36499;46.484;13.832;2023-04-24T11:59:35;0.70;;;0.70;;
12469;SDS011;36499;46.484;13.832;2023-04-24T12:02:03;1.03;;;0.67;;
12469;SDS011;36499;46.484;13.832;2023-04-24T12:04:39;1.20;;;0.77;;
12469;SDS011;36499;46.484;13.832;2023-04-24T12:07:07;1.20;;;0.80;;
12469;SDS011;36499;46.484;13.832;2023-04-24T12:09:41;0.90;;;0.77;;
12469;SDS011;36499;46.484;13.832;2023-04-24T12:12:10;0.80;;;0.80;;
12469;SDS011;36499;46.484;13.832;2023-04-24T12:14:46;1.20;;;1.03;;
12469;SDS011;36499;46.484;13.832;2023-04-24T12:17:15;1.10;;;1.00;;
12469;SDS011;36499;46.484;13.832;2023-04-24T12:19:47;1.43;;;0.93;;
12469;SDS011;36499;46.484;13.832;2023-04-24T12:22:15;1.40;;;1.10;;
12469;SDS011;36499;46.484;13.832;2023-04-24T12:24:55;1.37;;;1.10;;
12469;SDS011;36499;46.484;13.832;2023-04-24T12:27:25;1.50;;;1.40;;
12469;SDS011;36499;46.484;13.832;2023-04-24T12:29:53;2.07;;;1.80;;
12469;SDS011;36499;46.484;13.832;2023-04-24T12:32:22;1.57;;;1.40;;
12469;SDS011;36499;46.484;13.832;2023-04-24T12:34:52;2.07;;;1.10;;
12469;SDS011;36499;46.484;13.832;2023-04-24T12:37:22;1.47;;;1.30;;
12469;SDS011;36499;46.484;13.832;2023-04-24T12:40:00;4.60;;;1.20;;
12469;SDS011;36499;46.484;13.832;2023-04-24T12:42:31;1.43;;;1.30;;
12469;SDS011;36499;46.484;13.832;2023-04-24T12:45:00;1.77;;;1.33;;
12469;SDS011;36499;46.484;13.832;2023-04-24T12:47:30;1.97;;;1.20;;
12469;SDS011;36499;46.484;13.832;2023-04-24T12:49:59;1.40;;;1.00;;
12469;SDS011;36499;46.484;13.832;2023-04-24T12:52:27;1.77;;;1.47;;
12469;SDS011;36499;46.484;13.832;2023-04-24T12:54:56;1.10;;;1.00;;
12469;SDS011;36499;46.484;13.832;2023-04-24T12:57:25;1.20;;;1.10;;
12469;SDS011;36499;46.484;13.832;2023-04-24T12:59:54;1.40;;;1.10;;
12469;SDS011;36499;46.484;13.832;2023-04-24T13:02:23;2.13;;;1.63;;
12469;SDS011;36499;46.484;13.832;2023-04-24T13:04:52;1.40;;;1.20;;
12469;SDS011;36499;46.484;13.832;2023-04-24T13:07:21;1.40;;;1.17;;
12469;SDS011;36499;46.484;13.832;2023-04-24T13:09:49;1.30;;;1.20;;
12469;SDS011;36499;46.484;13.832;2023-04-24T13:12:17;3.67;;;1.50;;
12469;SDS011;36499;46.484;13.832;2023-04-24T13:14:45;1.63;;;1.23;;
12469;SDS011;36499;46.484;13.832;2023-04-24T13:17:12;1.83;;;1.30;;
12469;SDS011;36499;46.484;13.832;2023-04-24T13:19:40;3.43;;;1.30;;
12469;SDS011;36499;46.484;13.832;2023-04-24T13:22:10;2.10;;;1.17;;
12469;SDS011;36499;46.484;13.832;2023-04-24T13:24:39;1.60;;;1.20;;
12469;SDS011;36499;46.484;13.832;2023-04-24T13:27:07;2.00;;;1.23;;
12469;SDS011;36499;46.484;13.832;2023-04-24T13:29:35;2.83;;;1.67;;
12469;SDS011;36499;46.484;13.832;2023-04-24T13:32:02;2.50;;;1.20;;
12469;SDS011;36499;46.484;13.832;2023-04-24T13:34:30;1.73;;;1.40;;
12469;SDS011;36499;46.484;13.832;2023-04-24T13:36:57;2.90;;;1.70;;
12469;SDS011;36499;46.484;13.832;2023-04-24T13:39:25;2.77;;;1.90;;
12469;SDS011;36499;46.484;13.832;2023-04-24T13:41:54;3.73;;;2.10;;
12469;SDS011;36499;46.484;13.832;2023-04-24T13:44:21;1.93;;;1.43;;
12469;SDS011;36499;46.484;13.832;2023-04-24T13:46:50;4.03;;;1.60;;
12469;SDS011;36499;46.484;13.832;2023-04-24T13:49:21;3.90;;;1.57;;
12469;SDS011;36499;46.484;13.832;2023-04-24T13:51:51;2.60;;;1.17;;
12469;SDS011;36499;46.484;13.832;2023-04-24T13:54:19;1.33;;;1.00;;
12469;SDS011;36499;46.484;13.832;2023-04-24T13:56:48;1.60;;;1.00;;
12469;SDS011;36499;46.484;13.832;2023-04-24T13:59:16;1.53;;;1.23;;
12469;SDS011;36499;46.484;13.832;2023-04-24T14:01:45;1.80;;;1.30;;
12469;SDS011;36499;46.484;13.832;2023-04-24T14:04:12;1.43;;;1.00;;
12469;SDS011;36499;46.484;13.832;2023-04-24T14:06:39;2.23;;;0.93;;
12469;SDS011;36499;46.484;13.832;2023-04-24T14:09:06;0.80;;;0.80;;
12469;SDS011;36499;46.484;13.832;2023-04-24T14:11:33;0.90;;;0.90;;
12469;SDS011;36499;46.484;13.832;2023-04-24T14:14:01;0.80;;;0.80;;
12469;SDS011;36499;46.484;13.832;2023-04-24T14:16:30;5.40;;;2.90;;
12469;SDS011;36499;46.484;13.832;2023-04-24T14:18:57;2.20;;;0.93;;
12469;SDS011;36499;46.484;13.832;2023-04-24T14:21:24;3.17;;;0.90;;
12469;SDS011;36499;46.484;13.832;2023-04-24T14:23:51;0.90;;;0.90;;
12469;SDS011;36499;46.484;13.832;2023-04-24T14:26:19;1.13;;;0.90;;
12469;SDS011;36499;46.484;13.832;2023-04-24T14:28:46;2.30;;;1.30;;
12469;SDS011;36499;46.484;13.832;2023-04-24T14:31:13;8.17;;;2.83;;
12469;SDS011;36499;46.484;13.832;2023-04-24T14:33:42;7.43;;;2.87;;
12469;SDS011;36499;46.484;13.832;2023-04-24T14:36:09;5.13;;;2.43;;
12469;SDS011;36499;46.484;13.832;2023-04-24T14:38:36;5.30;;;2.60;;
12469;SDS011;36499;46.484;13.832;2023-04-24T14:41:03;2.63;;;2.30;;
12469;SDS011;36499;46.484;13.832;2023-04-24T14:43:34;2.97;;;2.20;;